sensor_id;sensor_type;location;lat;lon;timestamp;P1;durP1;ratioP1;P2;durP2;ratioP2
15192;SDS011;7697;51.630;7.484;2023-04-01T00:03:28;2.85;;;1.30;;
15192;SDS011;7697;51.630;7.484;2023-04-01T00:08:32;4.25;;;1.40;;
15192;SDS011;7697;51.630;7.484;2023-04-01T00:13:34;4.05;;;1.52;;
15192;SDS011;7697;51.630;7.484;2023-04-01T00:18:35;2.45;;;1.50;;
15192;SDS011;7697;51.630;7.484;2023-04-01T00:23:38;2.70;;;1.45;;
15192;SDS011;7697;51.630;7.484;2023-04-01T00:28:40;4.20;;;1.65;;
15192;SDS011;7697;51.630;7.484;2023-04-01T00:33:42;4.57;;;1.70;;
15192;SDS011;7697;51.630;7.484;2023-04-01T00:38:46;2.97;;;1.63;;
15192;SDS011;7697;51.630;7.484;2023-04-01T00:43:48;1.60;;;1.13;;
15192;SDS011;7697;51.630;7.484;2023-04-01T00:48:52;2.25;;;1.48;;
15192;SDS011;7697;51.630;7.484;2023-04-01T00:53:58;2.63;;;1.50;;
15192;SDS011;7697;51.630;7.484;2023-04-01T00:59:04;2.22;;;1.38;;
15192;SDS011;7697;51.630;7.484;2023-04-01T01:04:20;2.97;;;1.35;;
15192;SDS011;7697;51.630;7.484;2023-04-01T01:09:28;1.98;;;1.52;;
15192;SDS011;7697;51.630;7.484;2023-04-01T01:14:42;2.03;;;1.40;;
15192;SDS011;7697;51.630;7.484;2023-04-01T01:19:55;3.25;;;1.50;;
15192;SDS011;7697;51.630;7.484;2023-04-01T01:25:16;2.05;;;1.40;;
15192;SDS011;7697;51.630;7.484;2023-04-01T01:30:33;2.00;;;1.25;;
15192;SDS011;7697;51.630;7.484;2023-04-01T01:35:42;3.10;;;1.52;;
15192;SDS011;7697;51.630;7.484;2023-04-01T01:40:49;1.50;;;1.23;;
15192;SDS011;7697;51.630;7.484;2023-04-01T01:45:54;2.25;;;1.50;;
15192;SDS011;7697;51.630;7.484;2023-04-01T01:51:01;2.35;;;1.40;;
15192;SDS011;7697;51.630;7.484;2023-04-01T01:56:04;1.30;;;1.20;;
15192;SDS011;7697;51.630;7.484;2023-04-01T02:01:06;1.70;;;1.48;;
15192;SDS011;7697;51.630;7.484;2023-04-01T02:06:15;2.08;;;1.40;;
15192;SDS011;7697;51.630;7.484;2023-04-01T02:11:20;2.28;;;1.65;;
15192;SDS011;7697;51.630;7.484;2023-04-01T02:16:27;2.22;;;1.75;;
15192;SDS011;7697;51.630;7.484;2023-04-01T02:21:34;4.45;;;1.80;;
15192;SDS011;7697;51.630;7.484;2023-04-01T02:26:38;2.17;;;1.70;;
15192;SDS011;7697;51.630;7.484;2023-04-01T02:31:41;1.83;;;1.60;;
15192;SDS011;7697;51.630;7.484;2023-04-01T02:36:45;1.88;;;1.20;;
15192;SDS011;7697;51.630;7.484;2023-04-01T02:41:48;2.40;;;1.30;;
15192;SDS011;7697;51.630;7.484;2023-04-01T02:46:50;1.48;;;1.10;;
15192;SDS011;7697;51.630;7.484;2023-04-01T02:51:54;1.95;;;1.33;;
15192;SDS011;7697;51.630;7.484;2023-04-01T02:56:55;2.00;;;1.30;;
15192;SDS011;7697;51.630;7.484;2023-04-01T03:01:57;1.60;;;1.40;;
15192;SDS011;7697;51.630;7.484;2023-04-01T03:07:00;2.42;;;1.60;;
15192;SDS011;7697;51.630;7.484;2023-04-01T03:12:03;1.60;;;1.40;;
15192;SDS011;7697;51.630;7.484;2023-04-01T03:17:05;2.03;;;1.50;;
15192;SDS011;7697;51.630;7.484;2023-04-01T03:22:08;2.22;;;1.13;;
15192;SDS011;7697;51.630;7.484;2023-04-01T03:27:11;2.65;;;1.60;;
15192;SDS011;7697;51.630;7.484;2023-04-01T03:32:13;2.25;;;1.50;;
15192;SDS011;7697;51.630;7.484;2023-04-01T03:37:16;2.80;;;1.40;;
15192;SDS011;7697;51.630;7.484;2023-04-01T03:42:18;1.77;;;1.50;;
15192;SDS011;7697;51.630;7.484;2023-04-01T03:47:20;4.32;;;1.90;;
15192;SDS011;7697;51.630;7.484;2023-04-01T03:52:23;1.52;;;1.20;;
15192;SDS011;7697;51.630;7.484;2023-04-01T03:57:25;2.88;;;1.75;;
15192;SDS011;7697;51.630;7.484;2023-04-01T04:02:26;2.10;;;1.50;;
15192;SDS011;7697;51.630;7.484;2023-04-01T04:07:30;2.15;;;1.40;;
15192;SDS011;7697;51.630;7.484;2023-04-01T04:12:31;1.92;;;1.33;;
15192;SDS011;7697;51.630;7.484;2023-04-01T04:17:34;1.90;;;1.40;;
15192;SDS011;7697;51.630;7.484;2023-04-01T04:22:37;2.17;;;1.70;;
15192;SDS011;7697;51.630;7.484;2023-04-01T04:27:38;1.45;;;1.35;;
15192;SDS011;7697;51.630;7.484;2023-04-01T04:32:40;2.17;;;1.38;;
15192;SDS011;7697;51.630;7.484;2023-04-01T04:37:43;1.20;;;1.10;;
15192;SDS011;7697;51.630;7.484;2023-04-01T04:42:45;1.33;;;1.17;;
15192;SDS011;7697;51.630;7.484;2023-04-01T04:47:47;1.33;;;1.05;;
15192;SDS011;7697;51.630;7.484;2023-04-01T04:52:50;1.27;;;1.10;;
15192;SDS011;7697;51.630;7.484;2023-04-01T04:57:51;1.73;;;1.45;;
15192;SDS011;7697;51.630;7.484;2023-04-01T05:02:53;2.08;;;1.25;;
15192;SDS011;7697;51.630;7.484;2023-04-01T05:07:56;2.08;;;1.10;;
15192;SDS011;7697;51.630;7.484;2023-04-01T05:12:58;1.13;;;1.02;;
15192;SDS011;7697;51.630;7.484;2023-04-01T05:18:00;1.88;;;1.50;;
15192;SDS011;7697;51.630;7.484;2023-04-01T05:23:03;1.73;;;1.52;;
15192;SDS011;7697;51.630;7.484;2023-04-01T05:28:05;1.73;;;1.63;;
15192;SDS011;7697;51.630;7.484;2023-04-01T05:33:06;2.65;;;2.00;;
15192;SDS011;7697;51.630;7.484;2023-04-01T05:38:10;1.30;;;1.20;;
15192;SDS011;7697;51.630;7.484;2023-04-01T05:43:12;1.63;;;1.40;;
15192;SDS011;7697;51.630;7.484;2023-04-01T05:48:14;2.38;;;1.80;;
15192;SDS011;7697;51.630;7.484;2023-04-01T05:53:17;1.90;;;1.70;;
15192;SDS011;7697;51.630;7.484;2023-04-01T05:58:19;2.45;;;1.88;;
15192;SDS011;7697;51.630;7.484;2023-04-01T06:03:21;2.83;;;1.98;;
15192;SDS011;7697;51.630;7.484;2023-04-01T06:08:24;1.90;;;1.60;;
15192;SDS011;7697;51.630;7.484;2023-04-01T06:13:30;2.10;;;1.58;;
15192;SDS011;7697;51.630;7.484;2023-04-01T06:18:59;2.00;;;1.80;;
15192;SDS011;7697;51.630;7.484;2023-04-01T06:24:22;2.72;;;1.80;;
15192;SDS011;7697;51.630;7.484;2023-04-01T06:29:45;2.75;;;2.10;;
15192;SDS011;7697;51.630;7.484;2023-04-01T06:40:29;2.10;;;1.90;;
15192;SDS011;7697;51.630;7.484;2023-04-01T06:45:50;2.08;;;1.88;;
15192;SDS011;7697;51.630;7.484;2023-04-01T06:51:00;2.28;;;2.08;;
15192;SDS011;7697;51.630;7.484;2023-04-01T06:56:12;2.42;;;2.20;;
15192;SDS011;7697;51.630;7.484;2023-04-01T07:01:19;2.00;;;1.88;;
15192;SDS011;7697;51.630;7.484;2023-04-01T07:06:26;2.63;;;1.90;;
15192;SDS011;7697;51.630;7.484;2023-04-01T07:11:37;2.50;;;2.10;;
15192;SDS011;7697;51.630;7.484;2023-04-01T07:16:40;2.10;;;1.80;;
15192;SDS011;7697;51.630;7.484;2023-04-01T07:21:47;4.20;;;2.25;;
15192;SDS011;7697;51.630;7.484;2023-04-01T07:26:54;2.47;;;1.65;;
15192;SDS011;7697;51.630;7.484;2023-04-01T07:32:06;2.35;;;1.70;;
15192;SDS011;7697;51.630;7.484;2023-04-01T07:37:21;1.73;;;1.40;;
15192;SDS011;7697;51.630;7.484;2023-04-01T07:42:33;1.75;;;1.65;;
15192;SDS011;7697;51.630;7.484;2023-04-01T07:47:49;1.75;;;1.65;;
15192;SDS011;7697;51.630;7.484;2023-04-01T07:53:05;2.00;;;1.80;;
15192;SDS011;7697;51.630;7.484;2023-04-01T07:58:18;1.77;;;1.40;;
15192;SDS011;7697;51.630;7.484;2023-04-01T08:03:36;1.45;;;1.33;;
15192;SDS011;7697;51.630;7.484;2023-04-01T08:08:52;2.17;;;1.70;;
15192;SDS011;7697;51.630;7.484;2023-04-01T08:14:04;3.35;;;3.00;;
15192;SDS011;7697;51.630;7.484;2023-04-01T08:19:18;2.08;;;1.83;;
15192;SDS011;7697;51.630;7.484;2023-04-01T08:24:33;2.50;;;2.30;;
15192;SDS011;7697;51.630;7.484;2023-04-01T08:29:41;1.70;;;1.60;;
15192;SDS011;7697;51.630;7.484;2023-04-01T08:34:51;2.95;;;1.42;;
15192;SDS011;7697;51.630;7.484;2023-04-01T08:40:16;1.65;;;1.55;;
15192;SDS011;7697;51.630;7.484;2023-04-01T08:45:45;3.15;;;1.90;;
15192;SDS011;7697;51.630;7.484;2023-04-01T08:56:40;2.33;;;2.13;;
15192;SDS011;7697;51.630;7.484;2023-04-01T09:07:34;1.80;;;1.70;;
15192;SDS011;7697;51.630;7.484;2023-04-01T09:23:56;1.95;;;1.73;;
15192;SDS011;7697;51.630;7.484;2023-04-01T09:29:20;3.15;;;2.85;;
15192;SDS011;7697;51.630;7.484;2023-04-01T09:34:40;2.63;;;2.42;;
15192;SDS011;7697;51.630;7.484;2023-04-01T09:40:14;2.63;;;2.42;;
15192;SDS011;7697;51.630;7.484;2023-04-01T09:45:25;2.88;;;2.30;;
15192;SDS011;7697;51.630;7.484;2023-04-01T09:50:48;3.55;;;3.10;;
15192;SDS011;7697;51.630;7.484;2023-04-01T09:56:06;3.55;;;2.83;;
15192;SDS011;7697;51.630;7.484;2023-04-01T10:07:21;4.20;;;3.40;;
15192;SDS011;7697;51.630;7.484;2023-04-01T10:13:05;5.22;;;3.85;;
15192;SDS011;7697;51.630;7.484;2023-04-01T10:18:34;4.88;;;4.07;;
15192;SDS011;7697;51.630;7.484;2023-04-01T10:23:58;5.43;;;4.18;;
15192;SDS011;7697;51.630;7.484;2023-04-01T10:40:37;5.20;;;4.70;;
15192;SDS011;7697;51.630;7.484;2023-04-01T10:51:52;6.28;;;5.68;;
15192;SDS011;7697;51.630;7.484;2023-04-01T10:57:26;4.80;;;4.32;;
15192;SDS011;7697;51.630;7.484;2023-04-01T11:02:51;6.30;;;4.50;;
15192;SDS011;7697;51.630;7.484;2023-04-01T11:13:56;5.57;;;4.15;;
15192;SDS011;7697;51.630;7.484;2023-04-01T11:19:35;3.88;;;3.17;;
15192;SDS011;7697;51.630;7.484;2023-04-01T11:30:36;4.47;;;3.20;;
15192;SDS011;7697;51.630;7.484;2023-04-01T11:35:57;4.70;;;3.95;;
15192;SDS011;7697;51.630;7.484;2023-04-01T11:41:10;5.25;;;3.55;;
15192;SDS011;7697;51.630;7.484;2023-04-01T11:46:25;4.10;;;3.60;;
15192;SDS011;7697;51.630;7.484;2023-04-01T11:51:47;10.70;;;3.55;;
15192;SDS011;7697;51.630;7.484;2023-04-01T11:57:03;3.72;;;3.20;;
15192;SDS011;7697;51.630;7.484;2023-04-01T12:02:22;3.00;;;2.70;;
15192;SDS011;7697;51.630;7.484;2023-04-01T12:07:39;4.60;;;3.13;;
15192;SDS011;7697;51.630;7.484;2023-04-01T12:12:59;4.50;;;3.22;;
15192;SDS011;7697;51.630;7.484;2023-04-01T12:18:12;3.22;;;2.92;;
15192;SDS011;7697;51.630;7.484;2023-04-01T12:23:24;3.78;;;2.95;;
15192;SDS011;7697;51.630;7.484;2023-04-01T12:28:51;3.95;;;3.22;;
15192;SDS011;7697;51.630;7.484;2023-04-01T12:39:56;5.55;;;4.97;;
15192;SDS011;7697;51.630;7.484;2023-04-01T12:45:28;6.00;;;5.40;;
15192;SDS011;7697;51.630;7.484;2023-04-01T12:50:48;8.90;;;6.07;;
15192;SDS011;7697;51.630;7.484;2023-04-01T12:56:07;7.10;;;5.53;;
15192;SDS011;7697;51.630;7.484;2023-04-01T13:01:29;5.28;;;4.68;;
15192;SDS011;7697;51.630;7.484;2023-04-01T13:06:45;6.60;;;4.68;;
15192;SDS011;7697;51.630;7.484;2023-04-01T13:11:58;12.55;;;9.30;;
15192;SDS011;7697;51.630;7.484;2023-04-01T13:17:13;24.67;;;15.85;;
15192;SDS011;7697;51.630;7.484;2023-04-01T13:22:26;10.48;;;7.72;;
15192;SDS011;7697;51.630;7.484;2023-04-01T13:27:37;5.90;;;5.40;;
15192;SDS011;7697;51.630;7.484;2023-04-01T13:32:44;5.75;;;5.15;;
15192;SDS011;7697;51.630;7.484;2023-04-01T13:37:54;4.60;;;4.15;;
15192;SDS011;7697;51.630;7.484;2023-04-01T13:43:10;4.60;;;4.03;;
15192;SDS011;7697;51.630;7.484;2023-04-01T13:48:38;3.83;;;3.53;;
15192;SDS011;7697;51.630;7.484;2023-04-01T13:53:56;3.85;;;3.33;;
15192;SDS011;7697;51.630;7.484;2023-04-01T13:59:21;4.43;;;4.00;;
15192;SDS011;7697;51.630;7.484;2023-04-01T14:04:50;4.10;;;3.70;;
15192;SDS011;7697;51.630;7.484;2023-04-01T14:10:07;4.70;;;3.58;;
15192;SDS011;7697;51.630;7.484;2023-04-01T14:15:25;3.85;;;3.50;;
15192;SDS011;7697;51.630;7.484;2023-04-01T14:20:39;4.95;;;4.45;;
15192;SDS011;7697;51.630;7.484;2023-04-01T14:31:27;3.35;;;3.05;;
15192;SDS011;7697;51.630;7.484;2023-04-01T14:36:41;3.33;;;2.80;;
15192;SDS011;7697;51.630;7.484;2023-04-01T14:41:58;4.00;;;3.00;;
15192;SDS011;7697;51.630;7.484;2023-04-01T14:47:24;3.80;;;3.50;;
15192;SDS011;7697;51.630;7.484;2023-04-01T14:52:38;4.93;;;4.35;;
15192;SDS011;7697;51.630;7.484;2023-04-01T14:57:43;4.38;;;3.95;;
15192;SDS011;7697;51.630;7.484;2023-04-01T15:03:01;4.30;;;3.90;;
15192;SDS011;7697;51.630;7.484;2023-04-01T15:08:10;5.97;;;4.10;;
15192;SDS011;7697;51.630;7.484;2023-04-01T15:13:20;4.03;;;3.53;;
15192;SDS011;7697;51.630;7.484;2023-04-01T15:18:39;4.40;;;4.00;;
15192;SDS011;7697;51.630;7.484;2023-04-01T15:24:00;5.72;;;5.22;;
15192;SDS011;7697;51.630;7.484;2023-04-01T15:29:15;4.88;;;4.45;;
15192;SDS011;7697;51.630;7.484;2023-04-01T15:34:34;6.85;;;5.28;;
15192;SDS011;7697;51.630;7.484;2023-04-01T15:39:46;5.70;;;5.20;;
15192;SDS011;7697;51.630;7.484;2023-04-01T15:45:03;6.30;;;5.40;;
15192;SDS011;7697;51.630;7.484;2023-04-01T15:55:50;6.05;;;5.45;;
15192;SDS011;7697;51.630;7.484;2023-04-01T16:01:02;5.80;;;5.30;;
15192;SDS011;7697;51.630;7.484;2023-04-01T16:11:48;7.20;;;6.50;;
15192;SDS011;7697;51.630;7.484;2023-04-01T16:17:08;8.27;;;7.07;;
15192;SDS011;7697;51.630;7.484;2023-04-01T16:22:23;7.40;;;6.47;;
15192;SDS011;7697;51.630;7.484;2023-04-01T16:27:29;7.57;;;6.70;;
15192;SDS011;7697;51.630;7.484;2023-04-01T16:32:43;7.45;;;6.65;;
15192;SDS011;7697;51.630;7.484;2023-04-01T16:37:55;6.47;;;5.88;;
15192;SDS011;7697;51.630;7.484;2023-04-01T16:43:06;6.20;;;5.65;;
15192;SDS011;7697;51.630;7.484;2023-04-01T16:48:17;6.18;;;5.68;;
15192;SDS011;7697;51.630;7.484;2023-04-01T16:53:25;6.15;;;5.55;;
15192;SDS011;7697;51.630;7.484;2023-04-01T16:58:39;6.40;;;5.80;;
15192;SDS011;7697;51.630;7.484;2023-04-01T17:03:45;6.30;;;5.70;;
15192;SDS011;7697;51.630;7.484;2023-04-01T17:08:55;5.47;;;4.97;;
15192;SDS011;7697;51.630;7.484;2023-04-01T17:14:18;4.30;;;3.90;;
15192;SDS011;7697;51.630;7.484;2023-04-01T17:19:36;4.15;;;3.75;;
15192;SDS011;7697;51.630;7.484;2023-04-01T17:24:51;3.85;;;3.55;;
15192;SDS011;7697;51.630;7.484;2023-04-01T17:30:19;3.88;;;3.17;;
15192;SDS011;7697;51.630;7.484;2023-04-01T17:35:31;3.58;;;3.20;;
15192;SDS011;7697;51.630;7.484;2023-04-01T17:40:38;3.00;;;2.67;;
15192;SDS011;7697;51.630;7.484;2023-04-01T17:45:53;3.88;;;3.50;;
15192;SDS011;7697;51.630;7.484;2023-04-01T17:51:03;4.50;;;3.90;;
15192;SDS011;7697;51.630;7.484;2023-04-01T17:56:25;4.65;;;4.07;;
15192;SDS011;7697;51.630;7.484;2023-04-01T18:01:43;3.83;;;3.53;;
15192;SDS011;7697;51.630;7.484;2023-04-01T18:06:59;3.70;;;3.40;;
15192;SDS011;7697;51.630;7.484;2023-04-01T18:12:17;4.03;;;3.67;;
15192;SDS011;7697;51.630;7.484;2023-04-01T18:17:27;5.60;;;4.55;;
15192;SDS011;7697;51.630;7.484;2023-04-01T18:22:43;5.90;;;5.40;;
15192;SDS011;7697;51.630;7.484;2023-04-01T18:27:47;6.05;;;5.50;;
15192;SDS011;7697;51.630;7.484;2023-04-01T18:32:52;6.53;;;5.82;;
15192;SDS011;7697;51.630;7.484;2023-04-01T18:38:00;5.70;;;5.20;;
15192;SDS011;7697;51.630;7.484;2023-04-01T18:43:14;4.63;;;4.22;;
15192;SDS011;7697;51.630;7.484;2023-04-01T18:48:33;3.95;;;3.65;;
15192;SDS011;7697;51.630;7.484;2023-04-01T18:53:45;2.70;;;2.50;;
15192;SDS011;7697;51.630;7.484;2023-04-01T18:58:54;2.15;;;1.95;;
15192;SDS011;7697;51.630;7.484;2023-04-01T19:04:05;1.90;;;1.80;;
15192;SDS011;7697;51.630;7.484;2023-04-01T19:09:20;2.08;;;1.98;;
15192;SDS011;7697;51.630;7.484;2023-04-01T19:14:26;2.15;;;1.98;;
15192;SDS011;7697;51.630;7.484;2023-04-01T19:19:41;2.15;;;1.95;;
15192;SDS011;7697;51.630;7.484;2023-04-01T19:24:57;2.33;;;2.13;;
15192;SDS011;7697;51.630;7.484;2023-04-01T19:30:19;2.30;;;2.10;;
15192;SDS011;7697;51.630;7.484;2023-04-01T19:35:34;1.92;;;1.83;;
15192;SDS011;7697;51.630;7.484;2023-04-01T19:40:48;2.08;;;1.92;;
15192;SDS011;7697;51.630;7.484;2023-04-01T19:45:55;2.30;;;2.10;;
15192;SDS011;7697;51.630;7.484;2023-04-01T19:51:06;2.22;;;2.03;;
15192;SDS011;7697;51.630;7.484;2023-04-01T19:56:14;2.50;;;2.30;;
15192;SDS011;7697;51.630;7.484;2023-04-01T20:01:24;2.55;;;2.35;;
15192;SDS011;7697;51.630;7.484;2023-04-01T20:06:41;2.90;;;2.70;;
15192;SDS011;7697;51.630;7.484;2023-04-01T20:11:53;2.72;;;2.53;;
15192;SDS011;7697;51.630;7.484;2023-04-01T20:17:01;2.85;;;2.65;;
15192;SDS011;7697;51.630;7.484;2023-04-01T20:22:23;3.00;;;2.80;;
15192;SDS011;7697;51.630;7.484;2023-04-01T20:27:35;3.08;;;2.88;;
15192;SDS011;7697;51.630;7.484;2023-04-01T20:32:50;2.90;;;2.70;;
15192;SDS011;7697;51.630;7.484;2023-04-01T20:38:13;2.92;;;2.72;;
15192;SDS011;7697;51.630;7.484;2023-04-01T20:43:35;3.08;;;2.88;;
15192;SDS011;7697;51.630;7.484;2023-04-01T20:54:41;2.60;;;2.40;;
15192;SDS011;7697;51.630;7.484;2023-04-01T21:05:36;2.80;;;2.60;;
15192;SDS011;7697;51.630;7.484;2023-04-01T21:11:01;2.75;;;2.55;;
15192;SDS011;7697;51.630;7.484;2023-04-01T21:16:13;2.70;;;2.50;;
15192;SDS011;7697;51.630;7.484;2023-04-01T21:21:27;4.28;;;2.90;;
15192;SDS011;7697;51.630;7.484;2023-04-01T21:26:50;3.40;;;2.67;;
15192;SDS011;7697;51.630;7.484;2023-04-01T21:32:11;3.60;;;3.30;;
15192;SDS011;7697;51.630;7.484;2023-04-01T21:42:55;3.83;;;3.53;;
15192;SDS011;7697;51.630;7.484;2023-04-01T21:48:22;3.50;;;3.20;;
15192;SDS011;7697;51.630;7.484;2023-04-01T21:59:22;4.20;;;3.80;;
15192;SDS011;7697;51.630;7.484;2023-04-01T22:04:49;3.78;;;3.47;;
15192;SDS011;7697;51.630;7.484;2023-04-01T22:10:00;4.80;;;4.40;;
15192;SDS011;7697;51.630;7.484;2023-04-01T22:15:09;5.28;;;4.88;;
15192;SDS011;7697;51.630;7.484;2023-04-01T22:20:23;3.80;;;3.50;;
15192;SDS011;7697;51.630;7.484;2023-04-01T22:25:30;3.22;;;3.00;;
15192;SDS011;7697;51.630;7.484;2023-04-01T22:30:39;3.58;;;3.28;;
15192;SDS011;7697;51.630;7.484;2023-04-01T22:35:47;3.83;;;3.53;;
15192;SDS011;7697;51.630;7.484;2023-04-01T22:40:57;3.92;;;3.63;;
15192;SDS011;7697;51.630;7.484;2023-04-01T22:46:10;4.18;;;3.88;;
15192;SDS011;7697;51.630;7.484;2023-04-01T22:51:27;4.30;;;3.95;;
15192;SDS011;7697;51.630;7.484;2023-04-01T22:56:43;4.22;;;3.92;;
15192;SDS011;7697;51.630;7.484;2023-04-01T23:01:51;4.50;;;4.10;;
15192;SDS011;7697;51.630;7.484;2023-04-01T23:07:00;5.88;;;4.97;;
15192;SDS011;7697;51.630;7.484;2023-04-01T23:12:07;4.40;;;4.10;;
15192;SDS011;7697;51.630;7.484;2023-04-01T23:22:46;3.70;;;3.40;;
15192;SDS011;7697;51.630;7.484;2023-04-01T23:28:14;3.90;;;3.60;;
15192;SDS011;7697;51.630;7.484;2023-04-01T23:33:26;3.85;;;3.45;;
15192;SDS011;7697;51.630;7.484;2023-04-01T23:38:31;3.80;;;3.50;;
15192;SDS011;7697;51.630;7.484;2023-04-01T23:43:36;3.70;;;3.40;;
15192;SDS011;7697;51.630;7.484;2023-04-01T23:48:41;4.00;;;3.70;;
15192;SDS011;7697;51.630;7.484;2023-04-01T23:53:46;4.90;;;4.50;;
15192;SDS011;7697;51.630;7.484;2023-04-01T23:58:56;3.80;;;3.50;;
